createdAt,value
2018-03-20T10:30:05.725Z,1001.70
2018-03-20T10:31:05.695Z,1001.73
2018-03-20T10:32:05.731Z,1001.79
2018-03-20T10:33:05.752Z,1001.82
2018-03-20T10:34:05.786Z,1001.81
2018-03-20T10:35:05.818Z,1001.80
2018-03-20T10:36:05.849Z,1001.83
2018-03-20T10:37:05.877Z,1001.81
2018-03-20T10:38:05.921Z,1001.78
2018-03-20T10:39:05.953Z,1001.80
2018-03-20T10:40:05.989Z,1001.89
2018-03-20T10:41:06.019Z,1001.89
2018-03-20T10:42:06.041Z,1001.93
2018-03-20T10:43:06.096Z,1001.90
2018-03-20T10:44:06.110Z,1001.90
2018-03-20T10:45:06.144Z,1001.96
2018-03-20T10:46:06.185Z,1002.01
2018-03-20T10:47:06.215Z,1001.99
2018-03-20T10:48:06.248Z,1001.95
2018-03-20T10:49:06.283Z,1002.05
2018-03-20T10:50:06.321Z,1001.97
2018-03-20T10:51:06.355Z,1002.06
2018-03-20T10:52:06.384Z,1002.01
2018-03-20T10:53:06.419Z,1001.97
2018-03-20T10:54:06.453Z,1002.07
2018-03-20T10:55:06.493Z,1002.02
2018-03-20T10:56:06.525Z,1002.07
2018-03-20T10:57:06.558Z,1002.06
2018-03-20T10:58:06.595Z,1002.07
2018-03-20T10:59:06.631Z,1002.05
2018-03-20T11:00:06.662Z,1002.15
2018-03-20T11:01:06.698Z,1002.13
2018-03-20T11:02:06.741Z,1002.23
2018-03-20T11:03:06.766Z,1002.23
2018-03-20T11:04:06.800Z,1002.22
2018-03-20T11:05:06.838Z,1002.14
2018-03-20T11:06:06.872Z,1002.20
2018-03-20T11:07:06.908Z,1002.24
2018-03-20T11:08:06.941Z,1002.27
2018-03-20T11:09:06.975Z,1002.36
2018-03-20T11:10:07.742Z,1002.34
2018-03-20T11:11:07.046Z,1002.27
2018-03-20T11:12:07.079Z,1002.29
2018-03-20T11:13:07.119Z,1002.27
2018-03-20T11:14:07.149Z,1002.29
2018-03-20T11:15:07.182Z,1002.35
2018-03-20T11:16:07.219Z,1002.37
2018-03-20T11:17:07.254Z,1002.36
2018-03-20T11:18:07.290Z,1002.32
2018-03-20T11:19:07.324Z,1002.38
2018-03-20T11:20:07.359Z,1002.35
2018-03-20T11:21:07.396Z,1002.37
2018-03-20T11:22:07.429Z,1002.38
2018-03-20T11:23:07.462Z,1002.40
2018-03-20T11:24:07.497Z,1002.41
2018-03-20T11:25:07.532Z,1002.48
2018-03-20T11:26:07.566Z,1002.38
2018-03-20T11:27:07.615Z,1002.51
2018-03-20T11:28:07.639Z,1002.52
2018-03-20T11:29:07.674Z,1002.46
2018-03-20T11:30:07.706Z,1002.60
2018-03-20T11:31:07.741Z,1002.61
2018-03-20T11:32:07.779Z,1002.49
2018-03-20T11:33:07.812Z,1002.57
2018-03-20T11:34:07.846Z,1002.62
2018-03-20T11:35:07.899Z,1002.63
2018-03-20T11:36:07.917Z,1002.64
2018-03-20T11:37:07.954Z,1002.66
2018-03-20T11:38:07.989Z,1002.65
2018-03-20T11:39:08.024Z,1002.62
2018-03-20T11:40:08.057Z,1002.60
2018-03-20T11:41:08.093Z,1002.65
2018-03-20T11:42:08.127Z,1002.63
2018-03-20T11:43:08.166Z,1002.68
2018-03-20T11:44:08.197Z,1002.64
2018-03-20T11:45:08.238Z,1002.64
2018-03-20T11:46:08.267Z,1002.64
2018-03-20T11:47:08.302Z,1002.62
2018-03-20T11:48:08.336Z,1002.62
2018-03-20T11:49:08.373Z,1002.65
2018-03-20T11:50:08.409Z,1002.62
2018-03-20T11:51:08.442Z,1002.73
2018-03-20T11:52:08.482Z,1002.65
2018-03-20T11:53:08.513Z,1002.65
2018-03-20T11:54:08.547Z,1002.69
2018-03-20T11:55:08.593Z,1002.77
2018-03-20T11:56:08.625Z,1002.76
2018-03-20T11:57:08.656Z,1002.81
2018-03-20T11:58:08.690Z,1002.74
2018-03-20T11:59:08.727Z,1002.82
2018-03-20T12:00:08.761Z,1002.77
2018-03-20T12:01:08.795Z,1002.74
2018-03-20T12:02:08.844Z,1002.82
2018-03-20T12:03:08.867Z,1002.79
2018-03-20T12:04:08.899Z,1002.84
2018-03-20T12:05:08.952Z,1002.82
2018-03-20T12:06:08.970Z,1002.85
2018-03-20T12:07:09.008Z,1002.81
2018-03-20T12:08:09.055Z,1002.87
2018-03-20T12:09:09.077Z,1002.87
2018-03-20T12:10:09.154Z,1002.90
2018-03-20T12:11:09.147Z,1002.91
2018-03-20T12:12:09.182Z,1002.88
2018-03-20T12:13:09.240Z,1002.85
2018-03-20T12:14:09.420Z,1002.89
2018-03-20T12:15:09.293Z,1002.93
2018-03-20T12:16:09.322Z,1002.93
2018-03-20T12:17:09.358Z,1002.90
2018-03-20T12:18:09.422Z,1002.93
2018-03-20T12:19:09.426Z,1002.95
2018-03-20T12:20:09.465Z,1003.02
2018-03-20T12:21:09.498Z,1002.95
2018-03-20T12:22:09.538Z,1002.96
2018-03-20T12:23:09.572Z,1003.00
2018-03-20T12:24:09.604Z,1002.97
2018-03-20T12:25:09.640Z,1003.05
2018-03-20T12:26:09.678Z,1003.00
2018-03-20T12:27:09.713Z,1003.03
2018-03-20T12:28:09.746Z,1003.05
2018-03-20T12:29:09.781Z,1003.02
2018-03-20T12:30:10.771Z,1003.09
2018-03-20T12:31:09.850Z,1003.09
2018-03-20T12:32:09.888Z,1003.07
2018-03-20T12:33:09.921Z,1003.07
2018-03-20T12:34:09.957Z,1003.03
2018-03-20T12:35:09.991Z,1003.07
2018-03-20T12:36:10.029Z,1003.09
2018-03-20T12:37:10.062Z,1003.10
2018-03-20T12:38:10.098Z,1003.15
2018-03-20T12:39:10.133Z,1003.17
2018-03-20T12:40:10.169Z,1003.15
2018-03-20T12:41:10.210Z,1003.12
2018-03-20T12:42:10.238Z,1003.18
2018-03-20T12:43:10.275Z,1003.14
2018-03-20T12:44:10.307Z,1003.09
2018-03-20T12:45:10.351Z,1003.15
2018-03-20T12:46:10.378Z,1003.10
2018-03-20T12:47:10.413Z,1003.09
2018-03-20T12:48:10.455Z,1003.06
2018-03-20T12:49:10.486Z,1003.08
2018-03-20T12:50:10.521Z,1003.08
2018-03-20T12:51:10.557Z,1003.11
2018-03-20T12:52:10.592Z,1003.10
2018-03-20T12:53:10.625Z,1003.08
2018-03-20T12:54:10.662Z,1003.11
2018-03-20T12:55:10.697Z,1003.16
2018-03-20T12:56:10.730Z,1003.16
2018-03-20T12:57:10.767Z,1003.15
2018-03-20T12:58:10.802Z,1003.15
2018-03-20T12:59:10.834Z,1003.18
2018-03-20T13:00:10.873Z,1003.18
2018-03-20T13:01:10.909Z,1003.17
2018-03-20T13:02:10.944Z,1003.19
2018-03-20T13:03:10.978Z,1003.21
2018-03-20T13:04:11.013Z,1003.21
2018-03-20T13:05:11.051Z,1003.19
2018-03-20T13:06:11.082Z,1003.23
2018-03-20T13:07:11.127Z,1003.27
2018-03-20T13:08:11.151Z,1003.27
2018-03-20T13:09:11.187Z,1003.20
2018-03-20T13:10:11.223Z,1003.33
2018-03-20T13:11:11.258Z,1003.31
2018-03-20T13:12:11.293Z,1003.30
2018-03-20T13:13:11.369Z,1003.37
2018-03-20T13:14:11.363Z,1003.32
2018-03-20T13:15:11.403Z,1003.29
2018-03-20T13:16:11.434Z,1003.33
2018-03-20T13:17:11.471Z,1003.30
2018-03-20T13:18:11.508Z,1003.34
2018-03-20T13:19:11.540Z,1003.34
2018-03-20T13:20:11.576Z,1003.32
2018-03-20T13:21:11.630Z,1003.32
2018-03-20T13:22:11.650Z,1003.39
2018-03-20T13:23:11.756Z,1003.40
2018-03-20T13:24:11.713Z,1003.43
2018-03-20T13:25:11.753Z,1003.40
2018-03-20T13:26:11.790Z,1003.50
2018-03-20T13:27:11.821Z,1003.48
2018-03-20T13:28:11.893Z,1003.48
2018-03-20T13:29:11.905Z,1003.49
2018-03-20T13:30:12.797Z,1003.52
2018-03-20T13:31:11.960Z,1003.56
2018-03-20T13:32:12.017Z,1003.60
2018-03-20T13:33:12.030Z,1003.65
2018-03-20T13:34:12.063Z,1003.63
2018-03-20T13:35:12.106Z,1003.61
2018-03-20T13:36:12.135Z,1003.65
2018-03-20T13:37:12.171Z,1003.60
2018-03-20T13:38:12.212Z,1003.61
2018-03-20T13:39:12.242Z,1003.59
2018-03-20T13:40:12.275Z,1003.62
2018-03-20T13:41:12.323Z,1003.63
2018-03-20T13:42:12.345Z,1003.57
2018-03-20T13:43:12.384Z,1003.61
2018-03-20T13:44:12.418Z,1003.65
2018-03-20T13:45:12.452Z,1003.62
2018-03-20T13:46:12.488Z,1003.65
2018-03-20T13:47:12.524Z,1003.59
2018-03-20T13:48:12.558Z,1003.60
2018-03-20T13:49:12.640Z,1003.62
2018-03-20T13:50:12.628Z,1003.62
2018-03-20T13:51:12.664Z,1003.63
2018-03-20T13:52:12.715Z,1003.63
2018-03-20T13:53:12.741Z,1003.62
2018-03-20T13:54:12.767Z,1003.64
2018-03-20T13:55:12.807Z,1003.69
2018-03-20T13:56:12.839Z,1003.65
2018-03-20T13:57:12.875Z,1003.67
2018-03-20T13:58:12.909Z,1003.66
2018-03-20T13:59:12.948Z,1003.67
2018-03-20T14:00:12.983Z,1003.72
2018-03-20T14:01:13.024Z,1003.70
2018-03-20T14:02:13.050Z,1003.67
2018-03-20T14:03:13.084Z,1003.71
2018-03-20T14:04:13.120Z,1003.74
2018-03-20T14:05:13.155Z,1003.73
2018-03-20T14:06:13.212Z,1003.76
2018-03-20T14:07:13.226Z,1003.74
2018-03-20T14:08:13.262Z,1003.77
2018-03-20T14:09:13.299Z,1003.81
2018-03-20T14:10:13.333Z,1003.75
2018-03-20T14:11:13.369Z,1003.82
2018-03-20T14:12:13.403Z,1003.81
2018-03-20T14:13:13.438Z,1003.78
2018-03-20T14:14:13.470Z,1003.80
2018-03-20T14:15:13.511Z,1003.82
2018-03-20T14:16:13.541Z,1003.79
2018-03-20T14:17:13.580Z,1003.75
2018-03-20T14:18:13.611Z,1003.80
2018-03-20T14:19:13.647Z,1003.85
2018-03-20T14:20:13.694Z,1003.81
2018-03-20T14:21:13.721Z,1003.86
2018-03-20T14:22:13.760Z,1003.84
2018-03-20T14:23:13.790Z,1003.85
2018-03-20T14:24:13.821Z,1003.85
2018-03-20T14:25:13.860Z,1003.82
2018-03-20T14:26:13.894Z,1003.83
2018-03-20T14:27:13.932Z,1003.85
2018-03-20T14:28:13.963Z,1003.82
2018-03-20T14:29:14.001Z,1003.85
2018-03-20T14:30:14.033Z,1003.85
2018-03-20T14:31:14.109Z,1003.87
2018-03-20T14:32:14.102Z,1003.88
2018-03-20T14:33:14.138Z,1003.89
2018-03-20T14:34:14.172Z,1003.85
2018-03-20T14:35:14.206Z,1003.91
2018-03-20T14:36:14.242Z,1003.88
2018-03-20T14:37:14.277Z,1003.96
2018-03-20T14:38:14.312Z,1003.93
2018-03-20T14:39:14.348Z,1003.94
2018-03-20T14:40:14.385Z,1004.00
2018-03-20T14:41:14.416Z,1004.01
2018-03-20T14:42:14.451Z,1003.93
2018-03-20T14:43:14.491Z,1003.95
2018-03-20T14:44:14.521Z,1004.04
2018-03-20T14:45:14.556Z,1004.03
2018-03-20T14:46:14.590Z,1004.02
2018-03-20T14:47:14.626Z,1004.01
2018-03-20T14:48:14.660Z,1004.04
2018-03-20T14:49:14.696Z,1004.03
2018-03-20T14:50:15.327Z,1004.04
2018-03-20T14:51:14.767Z,1004.05
2018-03-20T14:52:14.800Z,1004.07
2018-03-20T14:53:14.835Z,1004.16
2018-03-20T14:54:14.871Z,1004.16
2018-03-20T14:55:14.904Z,1004.16
2018-03-20T14:56:14.941Z,1004.16
2018-03-20T14:57:14.974Z,1004.20
2018-03-20T14:58:15.015Z,1004.21
2018-03-20T14:59:15.043Z,1004.17
2018-03-20T15:00:15.079Z,1004.21
2018-03-20T15:01:15.116Z,1004.20
2018-03-20T15:02:15.149Z,1004.16
2018-03-20T15:03:15.183Z,1004.22
2018-03-20T15:04:15.218Z,1004.21
2018-03-20T15:05:15.258Z,1004.23
2018-03-20T15:06:15.287Z,1004.23
2018-03-20T15:07:15.332Z,1004.24
2018-03-20T15:08:15.360Z,1004.17
2018-03-20T15:09:15.395Z,1004.15
2018-03-20T15:10:15.428Z,1004.19
2018-03-20T15:11:15.461Z,1004.18
2018-03-20T15:12:15.496Z,1004.20
2018-03-20T15:13:15.535Z,1004.23
2018-03-20T15:14:15.565Z,1004.20
2018-03-20T15:15:15.600Z,1004.23
2018-03-20T15:16:15.638Z,1004.25
2018-03-20T15:17:15.670Z,1004.22
2018-03-20T15:18:15.704Z,1004.30
2018-03-20T15:19:15.740Z,1004.26
2018-03-20T15:20:15.778Z,1004.30
2018-03-20T15:21:15.809Z,1004.35
2018-03-20T15:22:15.845Z,1004.36
2018-03-20T15:23:15.878Z,1004.36
2018-03-20T15:24:15.916Z,1004.33
2018-03-20T15:25:15.948Z,1004.38
2018-03-20T15:26:15.983Z,1004.37
2018-03-20T15:27:16.021Z,1004.39
2018-03-20T15:28:16.053Z,1004.39
2018-03-20T15:29:16.119Z,1004.41
2018-03-20T15:30:16.127Z,1004.43
2018-03-20T15:31:16.156Z,1004.43
2018-03-20T15:32:16.192Z,1004.47
2018-03-20T15:33:16.225Z,1004.44
2018-03-20T15:34:16.262Z,1004.46
2018-03-20T15:35:16.298Z,1004.49
2018-03-20T15:36:16.330Z,1004.50
2018-03-20T15:37:16.365Z,1004.52
2018-03-20T15:38:16.407Z,1004.52
2018-03-20T15:39:16.437Z,1004.50
2018-03-20T15:40:16.470Z,1004.52
2018-03-20T15:41:16.505Z,1004.52
2018-03-20T15:42:16.546Z,1004.55
2018-03-20T15:43:16.576Z,1004.51
2018-03-20T15:44:16.610Z,1004.51
2018-03-20T15:45:16.647Z,1004.52
2018-03-20T15:46:16.679Z,1004.56
2018-03-20T15:47:16.713Z,1004.56
2018-03-20T15:48:16.748Z,1004.54
2018-03-20T15:49:16.837Z,1004.62
2018-03-20T15:50:16.820Z,1004.63
2018-03-20T15:51:16.851Z,1004.64
2018-03-20T15:52:16.890Z,1004.65
2018-03-20T15:53:16.928Z,1004.66
2018-03-20T15:54:16.957Z,1004.69
2018-03-20T15:55:16.990Z,1004.69
2018-03-20T15:56:17.032Z,1004.75
2018-03-20T15:57:17.066Z,1004.77
2018-03-20T15:58:17.118Z,1004.78
2018-03-20T15:59:17.130Z,1004.79
2018-03-20T16:00:17.165Z,1004.83
2018-03-20T16:01:17.208Z,1004.82
2018-03-20T16:02:17.233Z,1004.87
2018-03-20T16:03:17.266Z,1004.86
2018-03-20T16:04:17.304Z,1004.89
2018-03-20T16:05:17.340Z,1004.87
2018-03-20T16:06:17.372Z,1004.93
2018-03-20T16:07:17.409Z,1004.89
2018-03-20T16:08:17.445Z,1004.91
2018-03-20T16:09:17.504Z,1004.91
2018-03-20T16:10:17.513Z,1004.90
2018-03-20T16:11:17.545Z,1004.93
2018-03-20T16:12:17.580Z,1004.92
2018-03-20T16:13:17.615Z,1004.89
2018-03-20T16:14:17.648Z,1004.92
2018-03-20T16:15:17.684Z,1004.96
2018-03-20T16:16:17.722Z,1004.92
2018-03-20T16:17:17.756Z,1004.95
2018-03-20T16:18:17.790Z,1004.95
2018-03-20T16:19:17.823Z,1004.99
2018-03-20T16:20:17.857Z,1004.99
2018-03-20T16:21:17.895Z,1005.01
2018-03-20T16:22:17.940Z,1004.97
2018-03-20T16:23:17.960Z,1004.98
2018-03-20T16:24:18.003Z,1005.01
2018-03-20T16:25:18.032Z,1005.00
2018-03-20T16:26:18.069Z,1005.00
2018-03-20T16:27:18.100Z,1005.00
2018-03-20T16:28:18.139Z,1005.04
2018-03-20T16:29:18.169Z,1005.07
2018-03-20T16:30:19.867Z,1005.10
2018-03-20T16:31:18.241Z,1005.14
2018-03-20T16:32:18.280Z,1005.17
2018-03-20T16:33:18.310Z,1005.18
2018-03-20T16:34:18.343Z,1005.18
2018-03-20T16:35:18.383Z,1005.23
2018-03-20T16:36:18.414Z,1005.23
2018-03-20T16:37:18.448Z,1005.28
2018-03-20T16:38:18.486Z,1005.27
2018-03-20T16:39:18.515Z,1005.28
2018-03-20T16:40:18.551Z,1005.27
2018-03-20T16:41:18.587Z,1005.32
2018-03-20T16:42:18.672Z,1005.29
2018-03-20T16:43:18.659Z,1005.32
2018-03-20T16:44:18.689Z,1005.31
2018-03-20T16:45:18.724Z,1005.35
2018-03-20T16:46:18.757Z,1005.39
2018-03-20T16:47:18.792Z,1005.38
2018-03-20T16:48:18.828Z,1005.38
2018-03-20T16:49:18.862Z,1005.40
2018-03-20T16:50:18.895Z,1005.41
2018-03-20T16:51:18.934Z,1005.41
2018-03-20T16:52:18.969Z,1005.42
2018-03-20T16:53:19.003Z,1005.43
2018-03-20T16:54:19.034Z,1005.42
2018-03-20T16:55:19.077Z,1005.40
2018-03-20T16:56:19.103Z,1005.45
2018-03-20T16:57:19.139Z,1005.42
2018-03-20T16:58:19.173Z,1005.41
2018-03-20T16:59:19.264Z,1005.40
2018-03-20T17:00:19.243Z,1005.42
2018-03-20T17:01:19.279Z,1005.41
2018-03-20T17:02:19.313Z,1005.42
2018-03-20T17:03:19.352Z,1005.39
2018-03-20T17:04:19.382Z,1005.39
2018-03-20T17:05:19.416Z,1005.45
2018-03-20T17:06:19.449Z,1005.45
2018-03-20T17:07:19.490Z,1005.47
2018-03-20T17:08:19.521Z,1005.46
2018-03-20T17:09:19.556Z,1005.47
2018-03-20T17:10:19.595Z,1005.45
2018-03-20T17:11:19.624Z,1005.47
2018-03-20T17:12:19.660Z,1005.47
2018-03-20T17:13:19.694Z,1005.51
2018-03-20T17:14:19.744Z,1005.46
2018-03-20T17:15:19.781Z,1005.48
2018-03-20T17:16:19.795Z,1005.47
2018-03-20T17:17:19.832Z,1005.42
2018-03-20T17:18:19.866Z,1005.47
2018-03-20T17:19:19.900Z,1005.50
2018-03-20T17:20:19.937Z,1005.48
2018-03-20T17:21:19.970Z,1005.49
2018-03-20T17:22:20.008Z,1005.49
2018-03-20T17:23:20.040Z,1005.51
2018-03-20T17:24:20.075Z,1005.51
2018-03-20T17:25:20.109Z,1005.54
2018-03-20T17:26:20.149Z,1005.52
2018-03-20T17:27:20.185Z,1005.52
2018-03-20T17:28:20.222Z,1005.56
2018-03-20T17:29:20.251Z,1005.54
2018-03-20T17:30:20.288Z,1005.55
2018-03-20T17:31:20.316Z,1005.53
2018-03-20T17:32:20.352Z,1005.54
2018-03-20T17:33:20.386Z,1005.56
2018-03-20T17:34:20.422Z,1005.55
2018-03-20T17:35:20.456Z,1005.55
2018-03-20T17:36:20.493Z,1005.57
2018-03-20T17:37:20.526Z,1005.58
2018-03-20T17:38:20.558Z,1005.59
2018-03-20T17:39:20.593Z,1005.58
2018-03-20T17:40:20.628Z,1005.57
2018-03-20T17:41:20.663Z,1005.59
2018-03-20T17:42:20.698Z,1005.59
2018-03-20T17:43:20.731Z,1005.54
2018-03-20T17:44:20.765Z,1005.56
2018-03-20T17:45:20.802Z,1005.61
2018-03-20T17:46:20.856Z,1005.60
2018-03-20T17:47:20.873Z,1005.62
2018-03-20T17:48:20.905Z,1005.63
2018-03-20T17:49:20.939Z,1005.62
2018-03-20T17:50:20.976Z,1005.63
2018-03-20T17:51:21.007Z,1005.64
2018-03-20T17:52:21.043Z,1005.63
2018-03-20T17:53:21.082Z,1005.63
2018-03-20T17:54:21.112Z,1005.64
2018-03-20T17:55:21.147Z,1005.60
2018-03-20T17:56:21.181Z,1005.59
2018-03-20T17:57:21.216Z,1005.57
2018-03-20T17:58:21.254Z,1005.59
2018-03-20T17:59:21.285Z,1005.56
2018-03-20T18:00:21.320Z,1005.59
2018-03-20T18:01:21.355Z,1005.60
2018-03-20T18:02:21.390Z,1005.58
2018-03-20T18:03:21.423Z,1005.54
2018-03-20T18:04:21.458Z,1005.55
2018-03-20T18:05:21.497Z,1005.59
2018-03-20T18:06:21.527Z,1005.57
2018-03-20T18:07:21.562Z,1005.58
2018-03-20T18:08:21.597Z,1005.56
2018-03-20T18:09:21.630Z,1005.57
2018-03-20T18:10:21.675Z,1005.62
2018-03-20T18:11:21.701Z,1005.62
2018-03-20T18:12:21.735Z,1005.61
2018-03-20T18:13:21.773Z,1005.63
2018-03-20T18:14:21.802Z,1005.64
2018-03-20T18:15:21.838Z,1005.62
2018-03-20T18:16:21.874Z,1005.62
2018-03-20T18:17:21.906Z,1005.60
2018-03-20T18:18:21.953Z,1005.68
2018-03-20T18:19:21.976Z,1005.64
2018-03-20T18:20:22.011Z,1005.67
2018-03-20T18:21:22.047Z,1005.64
2018-03-20T18:22:22.080Z,1005.62
2018-03-20T18:23:22.113Z,1005.66
2018-03-20T18:24:22.149Z,1005.65
2018-03-20T18:25:22.183Z,1005.69
2018-03-20T18:26:22.216Z,1005.70
2018-03-20T18:27:22.253Z,1005.64
2018-03-20T18:28:22.290Z,1005.68
2018-03-20T18:29:22.323Z,1005.69
2018-03-20T18:30:22.357Z,1005.69
2018-03-20T18:31:22.390Z,1005.68
2018-03-20T18:32:22.428Z,1005.61
2018-03-20T18:33:22.468Z,1005.62
2018-03-20T18:34:22.495Z,1005.59
2018-03-20T18:35:22.527Z,1005.62
2018-03-20T18:36:22.564Z,1005.58
2018-03-20T18:37:22.602Z,1005.58
2018-03-20T18:38:22.630Z,1005.53
2018-03-20T18:39:22.665Z,1005.52
2018-03-20T18:40:22.699Z,1005.52
2018-03-20T18:41:22.735Z,1005.54
2018-03-20T18:42:22.772Z,1005.52
2018-03-20T18:43:22.824Z,1005.52
2018-03-20T18:44:22.836Z,1005.56
2018-03-20T18:45:22.871Z,1005.55
2018-03-20T18:46:22.911Z,1005.57
2018-03-20T18:47:22.945Z,1005.55
2018-03-20T18:48:22.973Z,1005.59
2018-03-20T18:49:23.006Z,1005.60
2018-03-20T18:50:23.043Z,1005.59
2018-03-20T18:51:23.079Z,1005.60
2018-03-20T18:52:23.110Z,1005.62
2018-03-20T18:53:23.146Z,1005.62
2018-03-20T18:54:23.176Z,1005.62
2018-03-20T18:55:23.213Z,1005.65
2018-03-20T18:56:23.247Z,1005.69
2018-03-20T18:57:23.283Z,1005.69
2018-03-20T18:58:23.316Z,1005.70
2018-03-20T18:59:23.351Z,1005.67
2018-03-20T19:00:23.391Z,1005.69
2018-03-20T19:01:23.419Z,1005.75
2018-03-20T19:02:23.452Z,1005.76
2018-03-20T19:03:23.487Z,1005.78
2018-03-20T19:04:23.523Z,1005.73
2018-03-20T19:05:23.557Z,1005.79
2018-03-20T19:06:23.590Z,1005.81
2018-03-20T19:07:23.623Z,1005.80
2018-03-20T19:08:23.669Z,1005.81
2018-03-20T19:09:23.705Z,1005.79
2018-03-20T19:10:23.730Z,1005.78
2018-03-20T19:11:23.761Z,1005.78
2018-03-20T19:12:23.804Z,1005.79
2018-03-20T19:13:23.831Z,1005.77
2018-03-20T19:14:23.864Z,1005.76
2018-03-20T19:15:23.898Z,1005.77
2018-03-20T19:16:23.935Z,1005.75
2018-03-20T19:17:23.969Z,1005.73
2018-03-20T19:18:24.001Z,1005.76
2018-03-20T19:19:24.036Z,1005.75
2018-03-20T19:20:24.072Z,1005.76
2018-03-20T19:21:24.105Z,1005.79
2018-03-20T19:22:24.138Z,1005.77
2018-03-20T19:23:24.174Z,1005.77
2018-03-20T19:24:24.212Z,1005.80
2018-03-20T19:25:24.250Z,1005.82
2018-03-20T19:26:24.275Z,1005.82
2018-03-20T19:27:24.310Z,1005.79
2018-03-20T19:28:24.349Z,1005.82
2018-03-20T19:29:24.378Z,1005.83
2018-03-20T19:30:24.417Z,1005.81
2018-03-20T19:31:24.448Z,1005.84
2018-03-20T19:32:24.480Z,1005.84
2018-03-20T19:33:24.515Z,1005.83
2018-03-20T19:34:24.549Z,1005.82
2018-03-20T19:35:24.586Z,1005.86
2018-03-20T19:36:24.616Z,1005.81
2018-03-20T19:37:24.653Z,1005.82
2018-03-20T19:38:24.690Z,1005.78
2018-03-20T19:39:24.720Z,1005.81
2018-03-20T19:40:24.754Z,1005.79
2018-03-20T19:41:24.788Z,1005.79
2018-03-20T19:42:24.826Z,1005.79
2018-03-20T19:43:24.862Z,1005.78
2018-03-20T19:44:24.894Z,1005.75
2018-03-20T19:45:24.926Z,1005.76
2018-03-20T19:46:24.972Z,1005.74
2018-03-20T19:47:25.021Z,1005.75
2018-03-20T19:48:25.030Z,1005.70
2018-03-20T19:49:25.067Z,1005.72
2018-03-20T19:50:25.097Z,1005.70
2018-03-20T19:51:25.136Z,1005.70
2018-03-20T19:52:25.169Z,1005.72
2018-03-20T19:53:25.200Z,1005.76
2018-03-20T19:54:25.233Z,1005.75
2018-03-20T19:55:25.267Z,1005.78
2018-03-20T19:56:25.305Z,1005.79
2018-03-20T19:57:25.340Z,1005.78
2018-03-20T19:58:25.370Z,1005.82
2018-03-20T19:59:25.406Z,1005.83
2018-03-20T20:00:25.439Z,1005.80
2018-03-20T20:01:25.476Z,1005.78
2018-03-20T20:02:25.508Z,1005.76
2018-03-20T20:03:25.542Z,1005.77
2018-03-20T20:04:25.608Z,1005.77
2018-03-20T20:05:25.611Z,1005.76
2018-03-20T20:06:25.645Z,1005.73
2018-03-20T20:07:25.680Z,1005.73
2018-03-20T20:08:25.713Z,1005.74
2018-03-20T20:09:25.761Z,1005.73
2018-03-20T20:10:25.785Z,1005.71
2018-03-20T20:11:25.816Z,1005.72
2018-03-20T20:12:25.850Z,1005.71
2018-03-20T20:13:25.886Z,1005.67
2018-03-20T20:14:25.923Z,1005.63
2018-03-20T20:15:25.956Z,1005.68
2018-03-20T20:16:25.988Z,1005.69
2018-03-20T20:17:26.030Z,1005.64
2018-03-20T20:18:26.062Z,1005.63
2018-03-20T20:19:26.090Z,1005.64
2018-03-20T20:20:26.138Z,1005.65
2018-03-20T20:21:26.159Z,1005.66
2018-03-20T20:22:26.197Z,1005.66
2018-03-20T20:23:26.225Z,1005.62
2018-03-20T20:24:26.264Z,1005.64
2018-03-20T20:25:26.295Z,1005.61
2018-03-20T20:26:26.328Z,1005.60
2018-03-20T20:27:26.361Z,1005.58
2018-03-20T20:28:26.398Z,1005.58
2018-03-20T20:29:26.432Z,1005.53
2018-03-20T20:30:26.475Z,1005.53
2018-03-20T20:31:26.518Z,1005.51
2018-03-20T20:32:26.539Z,1005.48
2018-03-20T20:33:26.568Z,1005.49
2018-03-20T20:34:26.639Z,1005.50
2018-03-20T20:35:26.638Z,1005.49
2018-03-20T20:36:26.672Z,1005.47
2018-03-20T20:37:26.706Z,1005.47
2018-03-20T20:38:26.740Z,1005.47
2018-03-20T20:39:26.773Z,1005.47
2018-03-20T20:40:26.809Z,1005.45
2018-03-20T20:41:26.844Z,1005.43
2018-03-20T20:42:26.876Z,1005.45
2018-03-20T20:43:26.912Z,1005.44
2018-03-20T20:44:26.948Z,1005.45
2018-03-20T20:45:26.982Z,1005.44
2018-03-20T20:46:27.015Z,1005.45
2018-03-20T20:47:27.049Z,1005.45
2018-03-20T20:48:27.087Z,1005.47
2018-03-20T20:49:27.116Z,1005.48
2018-03-20T20:50:27.976Z,1005.39
2018-03-20T20:51:27.195Z,1005.45
2018-03-20T20:52:27.219Z,1005.42
2018-03-20T20:53:27.258Z,1005.46
2018-03-20T20:54:27.289Z,1005.44
2018-03-20T20:55:27.323Z,1005.46
2018-03-20T20:56:27.356Z,1005.43
2018-03-20T20:57:27.392Z,1005.46
2018-03-20T20:58:27.427Z,1005.44
2018-03-20T20:59:27.466Z,1005.46
2018-03-20T21:00:27.495Z,1005.47
2018-03-20T21:01:27.529Z,1005.42
2018-03-20T21:02:27.565Z,1005.41
2018-03-20T21:03:27.602Z,1005.42
2018-03-20T21:04:27.634Z,1005.43
2018-03-20T21:05:27.666Z,1005.43
2018-03-20T21:06:27.700Z,1005.39
2018-03-20T21:07:27.738Z,1005.45
2018-03-20T21:08:27.831Z,1005.42
2018-03-20T21:09:27.803Z,1005.43
2018-03-20T21:10:27.839Z,1005.40
2018-03-20T21:11:27.874Z,1005.39
2018-03-20T21:12:27.907Z,1005.36
2018-03-20T21:13:27.942Z,1005.34
2018-03-20T21:14:27.974Z,1005.34
2018-03-20T21:15:28.008Z,1005.35
2018-03-20T21:16:28.044Z,1005.33
2018-03-20T21:17:28.079Z,1005.33
2018-03-20T21:18:28.112Z,1005.31
2018-03-20T21:19:28.153Z,1005.32
2018-03-20T21:20:28.182Z,1005.33
2018-03-20T21:21:28.215Z,1005.31
2018-03-20T21:22:28.248Z,1005.28
2018-03-20T21:23:28.284Z,1005.29
2018-03-20T21:24:28.321Z,1005.27
2018-03-20T21:25:28.354Z,1005.26
2018-03-20T21:26:28.386Z,1005.27
2018-03-20T21:27:28.420Z,1005.29
2018-03-20T21:28:28.453Z,1005.29
2018-03-20T21:29:28.499Z,1005.30
2018-03-20T21:30:28.528Z,1005.31
2018-03-20T21:31:28.557Z,1005.32
2018-03-20T21:32:28.595Z,1005.36
2018-03-20T21:33:28.626Z,1005.38
2018-03-20T21:34:28.660Z,1005.38
2018-03-20T21:35:28.709Z,1005.39
2018-03-20T21:36:28.730Z,1005.37
2018-03-20T21:37:28.771Z,1005.34
2018-03-20T21:38:28.798Z,1005.33
2018-03-20T21:39:28.835Z,1005.29
2018-03-20T21:40:28.866Z,1005.29
2018-03-20T21:41:28.905Z,1005.25
2018-03-20T21:42:28.936Z,1005.23
2018-03-20T21:43:28.968Z,1005.23
2018-03-20T21:44:29.004Z,1005.20
2018-03-20T21:45:29.045Z,1005.16
2018-03-20T21:46:29.080Z,1005.16
2018-03-20T21:47:29.112Z,1005.15
2018-03-20T21:48:29.142Z,1005.12
2018-03-20T21:49:29.176Z,1005.13
2018-03-20T21:50:29.214Z,1005.12
2018-03-20T21:51:29.250Z,1005.09
2018-03-20T21:52:29.280Z,1005.07
2018-03-20T21:53:29.313Z,1005.03
2018-03-20T21:54:29.347Z,1005.04
2018-03-20T21:55:29.381Z,1005.06
2018-03-20T21:56:29.415Z,1005.00
2018-03-20T21:57:29.473Z,1004.99
2018-03-20T21:58:29.485Z,1004.98
2018-03-20T21:59:29.518Z,1004.96
2018-03-20T22:00:29.554Z,1004.96
2018-03-20T22:01:29.588Z,1004.94
2018-03-20T22:02:29.626Z,1004.94
2018-03-20T22:03:29.658Z,1004.92
2018-03-20T22:04:29.691Z,1004.91
2018-03-20T22:05:29.725Z,1004.90
2018-03-20T22:06:29.762Z,1004.89
2018-03-20T22:07:29.793Z,1004.86
2018-03-20T22:08:29.827Z,1004.88
2018-03-20T22:09:29.864Z,1004.88
2018-03-20T22:10:29.902Z,1004.85
2018-03-20T22:11:29.931Z,1004.88
2018-03-20T22:12:29.965Z,1004.88
2018-03-20T22:13:30.000Z,1004.86
2018-03-20T22:14:30.033Z,1004.87
2018-03-20T22:15:30.069Z,1004.90
2018-03-20T22:16:30.104Z,1004.87
2018-03-20T22:17:30.137Z,1004.87
2018-03-20T22:18:30.170Z,1004.89
2018-03-20T22:19:30.219Z,1004.82
2018-03-20T22:20:30.240Z,1004.82
2018-03-20T22:21:30.275Z,1004.81
2018-03-20T22:22:30.309Z,1004.79
2018-03-20T22:23:30.343Z,1004.79
2018-03-20T22:24:30.378Z,1004.77
2018-03-20T22:25:30.417Z,1004.76
2018-03-20T22:26:30.444Z,1004.69
2018-03-20T22:27:30.480Z,1004.69
2018-03-20T22:28:30.516Z,1004.72
2018-03-20T22:29:30.552Z,1004.70
2018-03-20T22:30:30.628Z,1004.71
2018-03-20T22:31:30.620Z,1004.72
2018-03-20T22:32:30.656Z,1004.72
2018-03-20T22:33:30.689Z,1004.73
2018-03-20T22:34:30.721Z,1004.72
2018-03-20T22:35:30.756Z,1004.72